createdAt,value
2023-11-30T00:00:44.346Z,6.20
2023-11-30T00:03:12.119Z,5.27
2023-11-30T00:05:39.482Z,5.70
2023-11-30T00:08:06.758Z,6.03
2023-11-30T00:10:34.097Z,5.43
2023-11-30T00:13:01.547Z,4.23
2023-11-30T00:15:28.947Z,4.47
2023-11-30T00:17:57.894Z,5.27
2023-11-30T00:20:25.547Z,3.90
2023-11-30T00:22:53.363Z,6.27
2023-11-30T00:25:20.851Z,4.13
2023-11-30T00:27:48.090Z,4.40
2023-11-30T00:30:15.626Z,4.97
2023-11-30T00:32:43.512Z,4.87
2023-11-30T00:35:11.216Z,6.20
2023-11-30T00:37:38.787Z,5.60
2023-11-30T00:40:06.799Z,6.40
2023-11-30T00:42:34.538Z,6.87
2023-11-30T00:45:02.184Z,5.93
2023-11-30T00:47:29.496Z,7.03
2023-11-30T00:49:56.763Z,5.73
2023-11-30T00:52:24.142Z,5.10
2023-11-30T00:54:51.486Z,7.53
2023-11-30T00:57:18.967Z,5.10
2023-11-30T00:59:47.685Z,4.93
2023-11-30T01:02:16.043Z,5.07
2023-11-30T01:04:43.393Z,5.27
2023-11-30T01:07:11.162Z,5.70
2023-11-30T01:09:41.566Z,4.70
2023-11-30T01:12:09.028Z,7.63
2023-11-30T01:14:36.351Z,6.20
2023-11-30T01:17:03.775Z,6.73
2023-11-30T01:19:31.055Z,4.87
2023-11-30T01:21:58.639Z,5.90
2023-11-30T01:24:25.987Z,5.13
2023-11-30T01:26:53.675Z,5.60
2023-11-30T01:29:21.212Z,5.20
2023-11-30T01:31:48.908Z,6.97
2023-11-30T01:34:16.575Z,5.43
2023-11-30T01:36:44.030Z,5.90
2023-11-30T01:39:13.883Z,8.53
2023-11-30T01:41:43.234Z,8.23
2023-11-30T01:44:10.917Z,6.30
2023-11-30T01:46:39.379Z,8.83
2023-11-30T01:49:09.807Z,5.10
2023-11-30T01:51:37.890Z,6.27
2023-11-30T01:54:06.212Z,6.17
2023-11-30T01:56:36.608Z,4.63
2023-11-30T01:59:04.147Z,5.90
2023-11-30T02:01:32.967Z,6.80
2023-11-30T02:04:08.802Z,5.87
2023-11-30T02:06:36.480Z,7.07
2023-11-30T02:09:03.942Z,5.23
2023-11-30T02:11:31.644Z,6.37
2023-11-30T02:13:59.605Z,4.97
2023-11-30T02:16:27.311Z,6.13
2023-11-30T02:18:55.209Z,6.03
2023-11-30T02:21:23.750Z,6.37
2023-11-30T02:23:51.783Z,5.13
2023-11-30T02:26:19.698Z,6.00
2023-11-30T02:28:47.386Z,6.43
2023-11-30T02:31:15.077Z,6.50
2023-11-30T02:33:42.481Z,6.80
2023-11-30T02:36:10.256Z,5.27
2023-11-30T02:38:37.491Z,6.10
2023-11-30T02:41:05.191Z,4.43
2023-11-30T02:43:32.585Z,6.93
2023-11-30T02:45:59.865Z,5.13
2023-11-30T02:48:27.180Z,4.80
2023-11-30T02:50:54.479Z,7.10
2023-11-30T02:53:22.501Z,5.07
2023-11-30T02:55:49.754Z,6.23
2023-11-30T02:58:17.141Z,5.03
2023-11-30T03:00:44.879Z,7.00
2023-11-30T03:03:12.212Z,5.77
2023-11-30T03:05:41.858Z,5.50
2023-11-30T03:08:09.180Z,4.80
2023-11-30T03:10:36.446Z,6.07
2023-11-30T03:13:03.867Z,5.77
2023-11-30T03:15:32.398Z,7.63
2023-11-30T03:17:59.863Z,5.80
2023-11-30T03:20:27.256Z,5.30
2023-11-30T03:22:54.825Z,4.87
2023-11-30T03:25:22.185Z,5.70
2023-11-30T03:27:49.541Z,5.17
2023-11-30T03:30:16.940Z,5.77
2023-11-30T03:32:44.432Z,5.50
2023-11-30T03:35:11.871Z,6.47
2023-11-30T03:37:41.695Z,6.60
2023-11-30T03:40:09.902Z,6.13
2023-11-30T03:42:37.207Z,4.87
2023-11-30T03:45:06.641Z,6.20
2023-11-30T03:47:34.296Z,5.07
2023-11-30T03:50:01.738Z,8.97
2023-11-30T03:52:29.056Z,5.40
2023-11-30T03:54:56.356Z,6.47
2023-11-30T03:57:23.702Z,5.13
2023-11-30T03:59:51.143Z,8.17
2023-11-30T04:02:18.952Z,6.43
2023-11-30T04:04:48.449Z,8.13
2023-11-30T04:07:17.498Z,7.97
2023-11-30T04:09:47.786Z,9.73
2023-11-30T04:12:15.229Z,8.33
2023-11-30T04:14:42.709Z,6.37
2023-11-30T04:17:10.393Z,7.70
2023-11-30T04:19:37.872Z,7.80
2023-11-30T04:22:05.548Z,9.10
2023-11-30T04:24:32.978Z,7.70
2023-11-30T04:27:01.579Z,6.27
2023-11-30T04:29:29.630Z,6.30
2023-11-30T04:31:56.881Z,6.87
2023-11-30T04:34:24.602Z,8.13
2023-11-30T04:36:52.104Z,6.63
2023-11-30T04:39:21.661Z,6.53
2023-11-30T04:41:49.395Z,8.17
2023-11-30T04:44:16.624Z,7.93
2023-11-30T04:46:44.428Z,7.17
2023-11-30T04:49:12.071Z,6.87
2023-11-30T04:51:40.108Z,7.63
2023-11-30T04:54:10.814Z,7.67
2023-11-30T04:56:38.583Z,8.90
2023-11-30T04:59:06.050Z,6.43
2023-11-30T05:01:34.276Z,6.80
2023-11-30T05:04:04.044Z,6.50
2023-11-30T05:06:32.176Z,8.70
2023-11-30T05:08:59.714Z,6.77
2023-11-30T05:11:28.461Z,6.53
2023-11-30T05:13:56.034Z,7.03
2023-11-30T05:16:23.669Z,6.70
2023-11-30T05:18:51.092Z,7.20
2023-11-30T05:21:20.072Z,6.90
2023-11-30T05:23:47.571Z,7.03
2023-11-30T05:26:14.869Z,7.40
2023-11-30T05:28:42.327Z,7.47
2023-11-30T05:31:09.654Z,7.00
2023-11-30T05:33:36.874Z,8.57
2023-11-30T05:36:04.740Z,7.17
2023-11-30T05:38:32.028Z,7.63
2023-11-30T05:40:59.500Z,8.37
2023-11-30T05:43:27.912Z,9.10
2023-11-30T05:45:55.183Z,9.20
2023-11-30T05:48:23.477Z,8.67
2023-11-30T05:50:52.440Z,9.23
2023-11-30T05:53:19.734Z,8.03
2023-11-30T05:55:47.147Z,6.97
2023-11-30T05:58:14.643Z,8.43
2023-11-30T06:00:41.987Z,7.23
2023-11-30T06:03:09.492Z,6.83
2023-11-30T06:05:36.810Z,7.43
2023-11-30T06:08:04.383Z,8.43
2023-11-30T06:10:31.651Z,9.30
2023-11-30T06:12:59.515Z,7.87
2023-11-30T06:15:27.983Z,9.47
2023-11-30T06:17:55.232Z,7.53
2023-11-30T06:20:23.733Z,9.07
2023-11-30T06:22:51.557Z,8.90
2023-11-30T06:25:19.104Z,9.20
2023-11-30T06:27:46.513Z,9.63
2023-11-30T06:30:14.353Z,10.93
2023-11-30T06:32:41.827Z,11.37
2023-11-30T06:35:09.751Z,9.60
2023-11-30T06:37:37.705Z,12.43
2023-11-30T06:40:05.738Z,11.70
2023-11-30T06:42:33.465Z,13.90
2023-11-30T06:45:01.384Z,15.00
2023-11-30T06:47:29.088Z,12.77
2023-11-30T06:49:56.825Z,13.73
2023-11-30T06:52:24.143Z,13.50
2023-11-30T06:54:51.651Z,15.47
2023-11-30T06:57:25.339Z,11.83
2023-11-30T06:59:52.635Z,18.10
2023-11-30T07:02:19.990Z,15.03
2023-11-30T07:04:47.476Z,13.87
2023-11-30T07:07:20.580Z,11.83
2023-11-30T07:09:55.507Z,13.70
2023-11-30T07:12:22.940Z,13.90
2023-11-30T07:14:51.776Z,13.07
2023-11-30T07:17:20.144Z,10.40
2023-11-30T07:19:47.389Z,12.67
2023-11-30T07:22:15.370Z,11.90
2023-11-30T07:24:45.786Z,10.80
2023-11-30T07:27:13.149Z,11.57
2023-11-30T07:29:53.755Z,12.50
2023-11-30T07:32:32.575Z,11.27
2023-11-30T07:35:01.932Z,11.50
2023-11-30T07:37:32.181Z,13.83
2023-11-30T07:40:00.265Z,14.97
2023-11-30T07:42:32.968Z,12.63
2023-11-30T07:45:05.256Z,13.23
2023-11-30T07:47:35.752Z,15.30
2023-11-30T07:50:05.985Z,16.97
2023-11-30T07:52:36.802Z,12.20
2023-11-30T07:55:06.460Z,14.73
2023-11-30T07:57:34.093Z,13.53
2023-11-30T08:00:09.654Z,16.53
2023-11-30T08:02:37.458Z,15.23
2023-11-30T08:05:08.033Z,17.50
2023-11-30T08:07:35.543Z,16.27
2023-11-30T08:10:06.314Z,14.93
2023-11-30T08:12:36.460Z,20.57
2023-11-30T08:15:10.584Z,14.70
2023-11-30T08:17:37.975Z,17.50
2023-11-30T08:20:10.381Z,17.03
2023-11-30T08:22:37.982Z,15.37
2023-11-30T08:25:06.480Z,25.47
2023-11-30T08:27:40.354Z,26.90
2023-11-30T08:30:11.201Z,14.23
2023-11-30T08:32:43.076Z,21.87
2023-11-30T08:35:16.098Z,39.13
2023-11-30T08:37:43.363Z,46.07
2023-11-30T08:40:17.137Z,56.50
2023-11-30T08:42:44.562Z,28.93
2023-11-30T08:45:12.224Z,22.60
2023-11-30T08:47:39.752Z,20.73
2023-11-30T08:50:07.933Z,31.70
2023-11-30T08:52:36.359Z,54.27
2023-11-30T08:55:05.866Z,45.17
2023-11-30T08:57:33.399Z,26.37
2023-11-30T09:00:00.900Z,28.60
2023-11-30T09:02:37.593Z,26.63
2023-11-30T09:05:06.456Z,84.57
2023-11-30T09:07:35.285Z,30.80
2023-11-30T09:10:04.541Z,39.53
2023-11-30T09:12:34.173Z,25.90
2023-11-30T09:15:03.056Z,16.47
2023-11-30T09:17:30.663Z,41.03
2023-11-30T09:19:58.113Z,44.73
2023-11-30T09:22:25.762Z,52.60
2023-11-30T09:24:53.547Z,46.83
2023-11-30T09:27:21.737Z,79.57
2023-11-30T09:29:52.343Z,46.10
2023-11-30T09:32:25.328Z,108.27
2023-11-30T09:35:06.371Z,72.33
2023-11-30T09:37:33.779Z,86.70
2023-11-30T09:40:07.382Z,78.30
2023-11-30T09:42:35.140Z,62.50
2023-11-30T09:45:08.672Z,45.77
2023-11-30T09:47:36.993Z,24.40
2023-11-30T09:50:04.872Z,55.93
2023-11-30T09:52:38.724Z,57.13
2023-11-30T09:55:12.430Z,40.23
2023-11-30T09:57:40.513Z,16.77
2023-11-30T10:00:08.776Z,23.83
2023-11-30T10:02:36.092Z,24.50
2023-11-30T10:05:06.761Z,30.23
2023-11-30T10:07:35.066Z,38.23
2023-11-30T10:10:04.922Z,35.87
2023-11-30T10:12:32.780Z,36.13
2023-11-30T10:15:02.396Z,45.60
2023-11-30T10:17:30.373Z,41.80
2023-11-30T10:19:59.106Z,26.47
2023-11-30T10:22:27.276Z,28.67
2023-11-30T10:24:54.668Z,30.10
2023-11-30T10:27:24.277Z,51.13
2023-11-30T10:29:55.311Z,46.27
2023-11-30T10:32:24.459Z,59.97
2023-11-30T10:34:56.289Z,32.47
2023-11-30T10:37:42.021Z,46.83
2023-11-30T10:40:16.243Z,17.07
2023-11-30T10:42:49.506Z,26.47
2023-11-30T10:45:22.070Z,33.50
2023-11-30T10:47:50.812Z,24.50
2023-11-30T10:50:22.514Z,33.93
2023-11-30T10:52:52.612Z,29.23
2023-11-30T10:55:26.606Z,50.63
2023-11-30T10:57:58.456Z,28.77
2023-11-30T11:00:34.032Z,19.10
2023-11-30T11:03:09.077Z,30.23
2023-11-30T11:05:47.105Z,23.20
2023-11-30T11:08:15.151Z,29.63
2023-11-30T11:10:48.731Z,35.87
2023-11-30T11:13:29.492Z,25.73
2023-11-30T11:16:04.187Z,19.13
2023-11-30T11:18:33.628Z,36.63
2023-11-30T11:21:02.411Z,30.27
2023-11-30T11:23:41.176Z,20.90
2023-11-30T11:26:08.536Z,17.20
2023-11-30T11:28:38.840Z,28.80
2023-11-30T11:31:07.746Z,26.10
2023-11-30T11:33:37.761Z,20.67
2023-11-30T11:36:05.671Z,19.97
2023-11-30T11:38:33.078Z,21.00
2023-11-30T11:41:03.140Z,26.77
2023-11-30T11:43:30.427Z,22.07
2023-11-30T11:45:57.899Z,32.37
2023-11-30T11:48:25.347Z,23.30
2023-11-30T11:51:00.042Z,25.43
2023-11-30T11:53:27.685Z,31.20
2023-11-30T11:56:03.348Z,23.33
2023-11-30T11:58:36.394Z,29.53
2023-11-30T12:01:05.967Z,26.90
2023-11-30T12:03:33.599Z,24.70
2023-11-30T12:06:01.101Z,19.37
2023-11-30T12:08:33.619Z,28.90
2023-11-30T12:11:00.985Z,19.00
2023-11-30T12:13:29.045Z,20.83
2023-11-30T12:15:56.528Z,17.00
2023-11-30T12:18:32.612Z,14.70
2023-11-30T12:21:00.514Z,20.03
2023-11-30T12:23:27.784Z,27.97
2023-11-30T12:25:56.624Z,27.90
2023-11-30T12:28:24.113Z,22.53
2023-11-30T12:30:51.587Z,25.83
2023-11-30T12:33:19.107Z,28.03
2023-11-30T12:35:46.440Z,21.70
2023-11-30T12:38:14.955Z,21.47
2023-11-30T12:40:42.554Z,15.87
2023-11-30T12:43:10.195Z,16.53
2023-11-30T12:45:37.664Z,21.90
2023-11-30T12:48:05.248Z,15.93
2023-11-30T12:50:32.874Z,28.37
2023-11-30T12:53:00.671Z,14.93
2023-11-30T12:55:28.426Z,15.47
2023-11-30T12:57:57.277Z,18.73
2023-11-30T13:00:24.959Z,16.53
2023-11-30T13:02:52.726Z,16.50
2023-11-30T13:05:22.380Z,16.53
2023-11-30T13:07:59.164Z,21.23
2023-11-30T13:10:28.211Z,30.10
2023-11-30T13:12:55.689Z,18.07
2023-11-30T13:15:24.023Z,15.93
2023-11-30T13:17:52.759Z,19.63
2023-11-30T13:20:20.407Z,58.67
2023-11-30T13:22:49.237Z,46.17
2023-11-30T13:25:16.885Z,63.47
2023-11-30T13:27:48.674Z,21.67
2023-11-30T13:30:17.710Z,22.43
2023-11-30T13:32:45.760Z,33.23
2023-11-30T13:35:13.238Z,36.07
2023-11-30T13:37:40.669Z,60.37
2023-11-30T13:40:09.208Z,31.73
2023-11-30T13:42:36.899Z,28.17
2023-11-30T13:45:06.867Z,48.93
2023-11-30T13:47:34.618Z,34.87
2023-11-30T13:50:04.487Z,33.90
2023-11-30T13:52:31.942Z,79.57
2023-11-30T13:55:00.227Z,38.97
2023-11-30T13:57:27.890Z,18.97
2023-11-30T13:59:55.690Z,20.87
2023-11-30T14:02:23.278Z,32.17
2023-11-30T14:04:50.775Z,44.73
2023-11-30T14:07:18.251Z,39.10
2023-11-30T14:09:45.972Z,85.50
2023-11-30T14:12:13.479Z,36.63
2023-11-30T14:14:42.409Z,26.43
2023-11-30T14:17:11.733Z,32.10
2023-11-30T14:19:44.456Z,36.47
2023-11-30T14:22:12.617Z,48.87
2023-11-30T14:24:41.412Z,26.97
2023-11-30T14:27:11.817Z,48.50
2023-11-30T14:29:39.337Z,57.33
2023-11-30T14:32:09.543Z,30.43
2023-11-30T14:34:38.012Z,45.97
2023-11-30T14:37:05.428Z,29.70
2023-11-30T14:39:32.865Z,51.37
2023-11-30T14:42:00.519Z,72.90
2023-11-30T14:44:29.799Z,53.77
2023-11-30T14:46:57.244Z,47.60
2023-11-30T14:49:27.516Z,44.40
2023-11-30T14:51:54.952Z,73.60
2023-11-30T14:54:22.387Z,60.23
2023-11-30T14:56:50.902Z,54.03
2023-11-30T14:59:18.500Z,26.63
2023-11-30T15:01:47.637Z,32.80
2023-11-30T15:04:16.711Z,22.40
2023-11-30T15:06:44.590Z,31.67
2023-11-30T15:09:12.678Z,29.73
2023-11-30T15:11:41.197Z,35.03
2023-11-30T15:14:08.530Z,28.70
2023-11-30T15:16:41.363Z,26.53
2023-11-30T15:19:11.138Z,19.07
2023-11-30T15:21:39.809Z,19.53
2023-11-30T15:24:08.522Z,20.23
2023-11-30T15:26:41.066Z,26.00
2023-11-30T15:29:10.487Z,17.73
2023-11-30T15:31:39.065Z,19.57
2023-11-30T15:34:06.544Z,16.70
2023-11-30T15:36:34.114Z,23.40
2023-11-30T15:39:12.899Z,20.57
2023-11-30T15:41:46.966Z,21.10
2023-11-30T15:44:15.375Z,23.13
2023-11-30T15:46:44.850Z,19.60
2023-11-30T15:49:13.520Z,20.40
2023-11-30T15:51:44.505Z,15.77
2023-11-30T15:54:11.913Z,16.07
2023-11-30T15:56:39.357Z,13.90
2023-11-30T15:59:06.786Z,15.07
2023-11-30T16:01:39.206Z,19.93
2023-11-30T16:04:09.204Z,16.60
2023-11-30T16:06:50.421Z,22.70
2023-11-30T16:09:27.842Z,15.57
2023-11-30T16:12:10.877Z,13.37
2023-11-30T16:14:40.197Z,23.93
2023-11-30T16:17:25.846Z,21.03
2023-11-30T16:19:53.319Z,31.63
2023-11-30T16:22:20.979Z,19.67
2023-11-30T16:24:52.757Z,26.20
2023-11-30T16:27:22.239Z,24.07
2023-11-30T16:29:51.936Z,18.73
2023-11-30T16:32:19.832Z,18.60
2023-11-30T16:34:47.139Z,27.43
2023-11-30T16:37:14.881Z,18.53
2023-11-30T16:39:42.314Z,30.27
2023-11-30T16:42:09.959Z,23.43
2023-11-30T16:44:37.473Z,19.70
2023-11-30T16:47:04.858Z,18.40
2023-11-30T16:49:32.881Z,36.67
2023-11-30T16:52:03.801Z,25.77
2023-11-30T16:54:33.922Z,33.13
2023-11-30T16:57:08.746Z,20.83
2023-11-30T16:59:36.057Z,17.90
2023-11-30T17:02:04.255Z,28.00
2023-11-30T17:04:32.429Z,20.77
2023-11-30T17:07:00.826Z,24.80
2023-11-30T17:09:28.774Z,27.87
2023-11-30T17:11:56.522Z,27.43
2023-11-30T17:14:24.158Z,26.93
2023-11-30T17:16:51.914Z,26.50
2023-11-30T17:19:19.360Z,28.13
2023-11-30T17:21:50.207Z,29.50
2023-11-30T17:24:18.701Z,26.27
2023-11-30T17:26:46.138Z,37.57
2023-11-30T17:29:14.867Z,25.67
2023-11-30T17:31:42.474Z,37.63
2023-11-30T17:34:10.083Z,24.10
2023-11-30T17:36:37.814Z,25.57
2023-11-30T17:39:06.262Z,33.30
2023-11-30T17:41:33.901Z,35.93
2023-11-30T17:44:05.039Z,36.00
2023-11-30T17:46:32.624Z,36.37
2023-11-30T17:49:00.315Z,55.53
2023-11-30T17:51:27.695Z,39.37
2023-11-30T17:53:55.449Z,57.13
2023-11-30T17:56:24.311Z,95.93
2023-11-30T17:58:51.710Z,42.57
2023-11-30T18:01:19.208Z,41.97
2023-11-30T18:03:47.946Z,69.73
2023-11-30T18:06:15.607Z,30.40
2023-11-30T18:08:44.152Z,80.10
2023-11-30T18:11:11.870Z,71.40
2023-11-30T18:13:39.504Z,39.33
2023-11-30T18:16:07.792Z,74.57
2023-11-30T18:18:35.248Z,45.93
2023-11-30T18:21:02.497Z,71.77
2023-11-30T18:23:31.421Z,44.63
2023-11-30T18:25:58.752Z,108.80
2023-11-30T18:28:28.148Z,76.00
2023-11-30T18:30:59.496Z,122.00
2023-11-30T18:33:29.246Z,55.40
2023-11-30T18:35:57.947Z,59.27
2023-11-30T18:38:28.084Z,84.60
2023-11-30T18:40:59.070Z,67.60
2023-11-30T18:43:26.859Z,79.77
2023-11-30T18:45:54.961Z,63.67
2023-11-30T18:48:24.435Z,91.37
2023-11-30T18:50:52.058Z,101.67
2023-11-30T18:53:20.674Z,106.50
2023-11-30T18:55:48.307Z,79.30
2023-11-30T18:58:17.254Z,116.70
2023-11-30T19:00:44.934Z,157.13
2023-11-30T19:03:12.769Z,100.53
2023-11-30T19:05:40.278Z,95.37
2023-11-30T19:08:07.665Z,86.80
2023-11-30T19:10:35.242Z,50.23
2023-11-30T19:13:02.682Z,46.93
2023-11-30T19:15:34.275Z,75.20
2023-11-30T19:18:04.261Z,75.87
2023-11-30T19:20:32.785Z,62.33
2023-11-30T19:23:00.303Z,48.17
2023-11-30T19:25:33.012Z,30.77
2023-11-30T19:28:00.339Z,42.40
2023-11-30T19:30:30.279Z,54.70
2023-11-30T19:32:58.674Z,36.27
2023-11-30T19:35:26.112Z,53.90
2023-11-30T19:37:53.519Z,36.43
2023-11-30T19:40:21.196Z,55.33
2023-11-30T19:42:51.725Z,34.73
2023-11-30T19:45:21.883Z,42.63
2023-11-30T19:47:49.510Z,48.80
2023-11-30T19:50:17.279Z,44.50
2023-11-30T19:52:44.569Z,88.13
2023-11-30T19:55:12.074Z,72.80
2023-11-30T19:57:42.050Z,55.17
2023-11-30T20:00:10.604Z,41.50
2023-11-30T20:02:38.587Z,24.13
2023-11-30T20:05:08.852Z,53.43
2023-11-30T20:07:36.497Z,27.43
2023-11-30T20:10:04.349Z,38.63
2023-11-30T20:12:31.751Z,56.27
2023-11-30T20:14:59.219Z,51.60
2023-11-30T20:17:26.691Z,55.00
2023-11-30T20:19:54.256Z,36.60
2023-11-30T20:22:22.098Z,36.00
2023-11-30T20:24:49.676Z,46.33
2023-11-30T20:27:17.316Z,18.03
2023-11-30T20:29:48.267Z,30.43
2023-11-30T20:32:15.624Z,23.38
2023-11-30T20:34:45.011Z,30.08
2023-11-30T20:37:12.326Z,52.13
2023-11-30T20:39:39.802Z,66.27
2023-11-30T20:42:07.876Z,38.17
2023-11-30T20:44:37.421Z,40.23
2023-11-30T20:47:04.929Z,27.23
2023-11-30T20:49:33.297Z,19.87
2023-11-30T20:52:03.058Z,32.93
2023-11-30T20:54:32.230Z,20.20
2023-11-30T20:56:59.654Z,21.90
2023-11-30T20:59:30.672Z,17.93
2023-11-30T21:01:59.800Z,21.40
2023-11-30T21:04:27.232Z,50.50
2023-11-30T21:06:54.962Z,29.07
2023-11-30T21:09:23.344Z,20.40
2023-11-30T21:11:55.478Z,40.70
2023-11-30T21:14:27.072Z,23.10
2023-11-30T21:16:54.674Z,25.67
2023-11-30T21:19:22.488Z,17.13
2023-11-30T21:21:50.110Z,25.90
2023-11-30T21:24:18.685Z,25.07
2023-11-30T21:26:46.264Z,21.70
2023-11-30T21:29:14.369Z,30.17
2023-11-30T21:31:42.102Z,31.53
2023-11-30T21:34:09.971Z,26.40
2023-11-30T21:36:43.358Z,28.53
2023-11-30T21:39:13.817Z,32.83
2023-11-30T21:41:41.446Z,23.17
2023-11-30T21:44:10.132Z,37.13
2023-11-30T21:46:37.997Z,58.23
2023-11-30T21:49:06.059Z,55.67
2023-11-30T21:51:34.023Z,62.00
2023-11-30T21:54:01.999Z,36.00
2023-11-30T21:56:29.672Z,60.97
2023-11-30T21:58:57.101Z,37.97
2023-11-30T22:01:26.381Z,27.60
2023-11-30T22:03:54.199Z,26.50
2023-11-30T22:06:21.954Z,22.23
2023-11-30T22:08:52.213Z,26.47
2023-11-30T22:11:19.526Z,34.50
2023-11-30T22:13:46.950Z,38.33
2023-11-30T22:16:18.746Z,23.23
2023-11-30T22:18:51.910Z,26.80
2023-11-30T22:21:19.713Z,27.17
2023-11-30T22:23:47.338Z,23.50
2023-11-30T22:26:14.623Z,26.80
2023-11-30T22:28:41.907Z,17.53
2023-11-30T22:31:09.259Z,27.10
2023-11-30T22:33:37.581Z,19.83
2023-11-30T22:36:06.259Z,20.80
2023-11-30T22:38:40.896Z,24.37
2023-11-30T22:41:11.424Z,36.47
2023-11-30T22:43:39.277Z,30.87
2023-11-30T22:46:07.160Z,30.40
2023-11-30T22:48:35.824Z,29.83
2023-11-30T22:51:03.680Z,25.07
2023-11-30T22:53:30.978Z,30.67
2023-11-30T22:55:58.355Z,28.83
2023-11-30T22:58:25.962Z,24.73
2023-11-30T23:00:53.720Z,22.60
2023-11-30T23:03:21.387Z,23.60
2023-11-30T23:05:49.043Z,24.73
2023-11-30T23:08:16.488Z,20.80
2023-11-30T23:10:44.423Z,20.17
2023-11-30T23:13:12.018Z,22.40
2023-11-30T23:15:39.703Z,19.10
2023-11-30T23:18:07.212Z,18.37
2023-11-30T23:20:34.523Z,17.13
2023-11-30T23:23:01.822Z,19.27
2023-11-30T23:25:29.247Z,17.30
2023-11-30T23:27:56.714Z,17.27
2023-11-30T23:30:24.367Z,17.43
2023-11-30T23:32:53.156Z,17.70
2023-11-30T23:35:20.711Z,19.73
2023-11-30T23:37:48.630Z,20.77
2023-11-30T23:40:16.119Z,17.90
2023-11-30T23:42:44.099Z,16.07
2023-11-30T23:45:11.878Z,21.20
2023-11-30T23:47:39.436Z,17.00
2023-11-30T23:50:07.602Z,17.13
2023-11-30T23:52:34.849Z,17.10
2023-11-30T23:55:03.041Z,16.57
2023-11-30T23:57:32.417Z,11.83
